createdAt,value
2022-09-11T00:01:37.365Z,3.30
2022-09-11T00:04:05.125Z,2.80
2022-09-11T00:06:32.725Z,3.20
2022-09-11T00:09:02.615Z,3.53
2022-09-11T00:11:33.530Z,3.30
2022-09-11T00:14:02.128Z,3.28
2022-09-11T00:16:36.445Z,2.72
2022-09-11T00:19:08.773Z,2.90
2022-09-11T00:21:37.042Z,3.10
2022-09-11T00:24:04.964Z,3.40
2022-09-11T00:26:32.720Z,3.22
2022-09-11T00:29:02.141Z,3.63
2022-09-11T00:31:30.700Z,4.07
2022-09-11T00:33:58.470Z,2.90
2022-09-11T00:36:29.326Z,3.35
2022-09-11T00:38:58.190Z,3.20
2022-09-11T00:41:31.252Z,3.53
2022-09-11T00:44:05.525Z,3.17
2022-09-11T00:46:53.519Z,3.20
2022-09-11T00:49:43.040Z,3.47
2022-09-11T00:52:13.164Z,3.22
2022-09-11T00:54:49.965Z,3.38
2022-09-11T00:57:20.157Z,3.10
2022-09-11T00:59:50.922Z,2.70
2022-09-11T01:02:25.408Z,3.20
2022-09-11T01:04:55.805Z,2.90
2022-09-11T01:07:24.725Z,3.00
2022-09-11T01:09:53.169Z,2.80
2022-09-11T01:12:25.446Z,3.75
2022-09-11T01:14:53.765Z,3.10
2022-09-11T01:17:25.175Z,3.30
2022-09-11T01:20:36.126Z,3.28
2022-09-11T01:23:14.035Z,2.97
2022-09-11T01:26:05.446Z,3.35
2022-09-11T01:28:59.195Z,3.03
2022-09-11T01:31:32.468Z,2.90
2022-09-11T01:34:06.245Z,3.03
2022-09-11T01:36:40.201Z,3.15
2022-09-11T01:41:49.005Z,2.60
2022-09-11T01:44:23.333Z,2.92
2022-09-11T01:46:53.551Z,3.13
2022-09-11T01:49:24.005Z,3.03
2022-09-11T01:51:57.724Z,3.38
2022-09-11T01:54:33.239Z,3.67
2022-09-11T01:57:14.205Z,3.10
2022-09-11T01:59:46.605Z,3.53
2022-09-11T02:02:18.923Z,3.25
2022-09-11T02:04:56.765Z,2.85
2022-09-11T02:07:29.005Z,3.28
2022-09-11T02:10:03.204Z,3.00
2022-09-11T02:12:41.324Z,3.28
2022-09-11T02:15:09.713Z,3.28
2022-09-11T02:17:43.227Z,2.95
2022-09-11T02:20:11.326Z,4.05
2022-09-11T02:22:38.950Z,3.22
2022-09-11T02:25:06.925Z,3.20
2022-09-11T02:27:35.085Z,3.65
2022-09-11T02:30:02.405Z,4.38
2022-09-11T02:32:32.080Z,3.33
2022-09-11T02:35:00.422Z,2.95
2022-09-11T02:37:31.725Z,3.75
2022-09-11T02:40:20.648Z,3.38
2022-09-11T02:43:09.884Z,3.38
2022-09-11T02:45:48.309Z,3.42
2022-09-11T02:48:47.845Z,3.05
2022-09-11T02:51:26.047Z,3.50
2022-09-11T02:54:44.405Z,3.58
2022-09-11T02:57:21.846Z,3.63
2022-09-11T03:00:09.804Z,3.55
2022-09-11T03:02:41.746Z,3.50
2022-09-11T03:05:10.885Z,3.40
2022-09-11T03:07:38.365Z,3.45
2022-09-11T03:10:06.765Z,3.42
2022-09-11T03:12:36.806Z,3.65
2022-09-11T03:15:04.695Z,3.45
2022-09-11T03:17:32.687Z,3.33
2022-09-11T03:20:00.104Z,3.50
2022-09-11T03:22:27.949Z,3.78
2022-09-11T03:24:55.327Z,3.95
2022-09-11T03:27:24.094Z,3.10
2022-09-11T03:29:51.445Z,3.97
2022-09-11T03:32:19.005Z,3.97
2022-09-11T03:34:47.721Z,4.55
2022-09-11T03:37:16.188Z,4.22
2022-09-11T03:39:43.747Z,3.75
2022-09-11T03:42:13.965Z,3.42
2022-09-11T03:44:41.885Z,3.60
2022-09-11T03:47:09.322Z,3.30
2022-09-11T03:49:36.725Z,3.92
2022-09-11T03:52:04.680Z,3.45
2022-09-11T03:54:33.166Z,3.58
2022-09-11T03:57:00.365Z,3.92
2022-09-11T03:59:29.485Z,3.78
2022-09-11T04:01:56.804Z,3.90
2022-09-11T04:04:24.430Z,3.40
2022-09-11T04:06:52.164Z,3.00
2022-09-11T04:09:19.645Z,3.65
2022-09-11T04:11:47.125Z,3.42
2022-09-11T04:14:14.889Z,3.47
2022-09-11T04:16:42.303Z,3.78
2022-09-11T04:19:11.965Z,3.22
2022-09-11T04:21:39.685Z,3.60
2022-09-11T04:24:07.445Z,3.63
2022-09-11T04:26:35.005Z,3.38
2022-09-11T04:29:02.518Z,3.70
2022-09-11T04:31:30.078Z,3.85
2022-09-11T04:33:58.339Z,3.40
2022-09-11T04:36:27.328Z,3.22
2022-09-11T04:38:58.124Z,3.55
2022-09-11T04:41:25.960Z,3.55
2022-09-11T04:44:00.086Z,3.42
2022-09-11T04:46:30.251Z,3.33
2022-09-11T04:49:02.477Z,3.58
2022-09-11T04:51:38.620Z,3.40
2022-09-11T04:54:06.675Z,3.53
2022-09-11T04:56:38.134Z,3.63
2022-09-11T04:59:13.733Z,2.88
2022-09-11T05:01:41.145Z,3.60
2022-09-11T05:04:08.921Z,3.30
2022-09-11T05:06:38.154Z,3.42
2022-09-11T05:09:07.884Z,3.70
2022-09-11T05:11:35.614Z,3.75
2022-09-11T05:14:03.473Z,3.78
2022-09-11T05:16:31.721Z,3.95
2022-09-11T05:18:59.672Z,3.63
2022-09-11T05:21:28.417Z,3.33
2022-09-11T05:23:58.121Z,3.88
2022-09-11T05:26:30.739Z,3.25
2022-09-11T05:29:03.086Z,3.45
2022-09-11T05:31:30.603Z,3.78
2022-09-11T05:33:59.306Z,3.67
2022-09-11T05:36:27.895Z,3.70
2022-09-11T05:38:55.490Z,3.00
2022-09-11T05:41:23.082Z,3.25
2022-09-11T05:43:51.727Z,3.65
2022-09-11T05:46:20.226Z,3.20
2022-09-11T05:48:48.301Z,3.85
2022-09-11T05:51:21.885Z,3.25
2022-09-11T05:53:53.352Z,3.80
2022-09-11T05:56:22.973Z,2.80
2022-09-11T05:58:53.503Z,3.80
2022-09-11T06:01:23.580Z,4.07
2022-09-11T06:03:51.271Z,3.28
2022-09-11T06:06:20.265Z,3.15
2022-09-11T06:08:48.195Z,3.25
2022-09-11T06:11:17.311Z,3.05
2022-09-11T06:13:49.590Z,3.17
2022-09-11T06:16:22.434Z,3.00
2022-09-11T06:18:51.497Z,3.20
2022-09-11T06:21:21.065Z,3.50
2022-09-11T06:23:49.762Z,2.75
2022-09-11T06:26:19.765Z,2.88
2022-09-11T06:28:47.889Z,3.10
2022-09-11T06:31:17.123Z,3.10
2022-09-11T06:33:44.731Z,3.28
2022-09-11T06:36:30.290Z,3.17
2022-09-11T06:38:58.800Z,3.15
2022-09-11T06:41:27.500Z,2.72
2022-09-11T06:43:54.908Z,3.50
2022-09-11T06:46:24.100Z,3.40
2022-09-11T06:48:52.613Z,3.28
2022-09-11T06:51:21.734Z,3.42
2022-09-11T06:53:49.641Z,3.30
2022-09-11T06:56:18.738Z,3.50
2022-09-11T06:58:46.864Z,2.72
2022-09-11T07:01:19.027Z,3.10
2022-09-11T07:03:48.796Z,3.25
2022-09-11T07:06:18.439Z,3.10
2022-09-11T07:08:54.844Z,2.97
2022-09-11T07:11:22.380Z,2.60
2022-09-11T07:13:49.671Z,3.42
2022-09-11T07:16:17.247Z,3.00
2022-09-11T07:18:46.914Z,2.90
2022-09-11T07:21:17.462Z,2.85
2022-09-11T07:23:48.463Z,3.20
2022-09-11T07:26:16.947Z,2.70
2022-09-11T07:28:44.800Z,3.17
2022-09-11T07:31:19.996Z,3.13
2022-09-11T07:33:50.061Z,2.85
2022-09-11T07:36:19.809Z,2.90
2022-09-11T07:38:48.805Z,2.72
2022-09-11T07:41:17.982Z,3.00
2022-09-11T07:43:48.702Z,2.70
2022-09-11T07:46:16.236Z,2.75
2022-09-11T07:48:43.843Z,3.00
2022-09-11T07:51:13.434Z,3.20
2022-09-11T07:53:43.882Z,4.03
2022-09-11T07:56:15.524Z,3.10
2022-09-11T07:58:46.597Z,3.50
2022-09-11T08:01:18.113Z,3.15
2022-09-11T08:03:46.267Z,2.70
2022-09-11T08:06:21.941Z,2.70
2022-09-11T08:09:00.520Z,7.20
2022-09-11T08:11:30.177Z,2.80
2022-09-11T08:13:57.957Z,3.03
2022-09-11T08:16:28.158Z,2.60
2022-09-11T08:18:56.067Z,2.88
2022-09-11T08:21:24.929Z,3.20
2022-09-11T08:23:53.067Z,2.97
2022-09-11T08:26:26.821Z,2.60
2022-09-11T08:28:56.397Z,3.17
2022-09-11T08:31:27.524Z,3.97
2022-09-11T08:33:56.340Z,3.05
2022-09-11T08:36:24.583Z,2.95
2022-09-11T08:38:52.853Z,2.90
2022-09-11T08:41:32.306Z,2.95
2022-09-11T08:44:12.353Z,2.60
2022-09-11T08:46:58.066Z,2.58
2022-09-11T08:49:39.144Z,2.90
2022-09-11T08:52:06.991Z,2.85
2022-09-11T08:54:38.185Z,2.40
2022-09-11T08:57:27.316Z,2.60
2022-09-11T09:00:23.298Z,2.42
2022-09-11T09:03:30.500Z,2.30
2022-09-11T09:06:29.124Z,2.47
2022-09-11T09:09:22.350Z,2.78
2022-09-11T09:12:08.641Z,2.20
2022-09-11T09:14:38.650Z,2.50
2022-09-11T09:17:09.270Z,2.63
2022-09-11T09:20:00.745Z,2.85
2022-09-11T09:22:45.575Z,2.80
2022-09-11T09:25:19.400Z,3.17
2022-09-11T09:30:24.534Z,3.42
2022-09-11T09:33:13.400Z,2.90
2022-09-11T09:35:45.157Z,3.17
2022-09-11T09:38:21.843Z,3.22
2022-09-11T09:41:32.793Z,4.13
2022-09-11T09:44:25.886Z,2.70
2022-09-11T09:46:54.476Z,2.83
2022-09-11T09:49:31.525Z,3.08
2022-09-11T09:52:04.592Z,2.35
2022-09-11T09:54:34.704Z,2.20
2022-09-11T09:57:06.210Z,3.95
2022-09-11T09:59:43.797Z,2.22
2022-09-11T10:02:11.087Z,2.38
2022-09-11T10:04:38.670Z,2.00
2022-09-11T10:07:11.736Z,2.40
2022-09-11T10:09:48.492Z,2.75
2022-09-11T10:12:28.333Z,2.35
2022-09-11T10:15:03.490Z,2.25
2022-09-11T10:17:31.559Z,2.50
2022-09-11T10:20:23.247Z,2.33
2022-09-11T10:22:52.150Z,2.78
2022-09-11T10:25:27.026Z,1.98
2022-09-11T10:28:09.311Z,1.90
2022-09-11T10:30:41.186Z,2.35
2022-09-11T10:33:29.750Z,1.95
2022-09-11T10:35:58.750Z,2.03
2022-09-11T10:38:46.265Z,2.03
2022-09-11T10:41:14.107Z,1.95
2022-09-11T10:43:43.675Z,2.10
2022-09-11T10:46:19.853Z,2.53
2022-09-11T10:48:58.825Z,2.00
2022-09-11T10:51:28.705Z,2.45
2022-09-11T10:54:16.688Z,2.28
2022-09-11T10:57:05.790Z,2.45
2022-09-11T10:59:35.950Z,2.38
2022-09-11T11:02:04.182Z,2.03
2022-09-11T11:04:33.574Z,2.22
2022-09-11T11:07:34.707Z,2.10
2022-09-11T11:10:20.456Z,1.92
2022-09-11T11:13:13.750Z,2.00
2022-09-11T11:16:19.915Z,1.90
2022-09-11T11:19:07.847Z,1.80
2022-09-11T11:21:49.797Z,1.92
2022-09-11T11:24:54.459Z,2.42
2022-09-11T11:27:28.009Z,2.40
2022-09-11T11:33:12.946Z,3.30
2022-09-11T11:36:11.760Z,2.22
2022-09-11T11:39:11.331Z,2.00
2022-09-11T11:41:44.837Z,2.10
2022-09-11T11:46:52.505Z,2.33
2022-09-11T11:49:34.102Z,2.47
2022-09-11T11:52:05.068Z,2.25
2022-09-11T11:54:49.798Z,2.40
2022-09-11T11:57:21.080Z,3.60
2022-09-11T11:59:59.231Z,2.20
2022-09-11T12:02:56.787Z,1.95
2022-09-11T12:05:30.484Z,2.38
2022-09-11T12:10:33.636Z,2.33
2022-09-11T12:13:04.242Z,2.13
2022-09-11T12:15:34.897Z,2.10
2022-09-11T12:18:22.331Z,2.53
2022-09-11T12:20:49.745Z,2.40
2022-09-11T12:23:33.591Z,2.90
2022-09-11T12:26:11.121Z,2.63
2022-09-11T12:28:38.383Z,2.10
2022-09-11T12:31:11.879Z,2.20
2022-09-11T12:33:42.023Z,2.17
2022-09-11T12:36:26.401Z,2.97
2022-09-11T12:39:25.340Z,2.20
2022-09-11T12:41:52.714Z,2.42
2022-09-11T12:44:47.641Z,2.70
2022-09-11T12:47:23.570Z,2.50
2022-09-11T12:50:05.490Z,2.63
2022-09-11T12:52:51.103Z,2.80
2022-09-11T12:55:57.320Z,2.50
2022-09-11T12:58:40.800Z,2.38
2022-09-11T13:01:12.413Z,2.33
2022-09-11T13:04:10.581Z,2.65
2022-09-11T13:06:48.953Z,2.80
2022-09-11T13:09:22.895Z,2.90
2022-09-11T13:11:52.875Z,2.88
2022-09-11T13:14:29.175Z,2.72
2022-09-11T13:17:12.541Z,2.20
2022-09-11T13:19:39.887Z,1.92
2022-09-11T13:22:31.345Z,2.50
2022-09-11T13:25:16.633Z,7.00
2022-09-11T13:27:51.788Z,2.65
2022-09-11T13:30:22.420Z,2.47
2022-09-11T13:33:14.766Z,2.50
2022-09-11T13:35:45.785Z,2.58
2022-09-11T13:38:24.312Z,2.50
2022-09-11T13:41:07.241Z,2.58
2022-09-11T13:43:51.664Z,2.67
2022-09-11T13:46:23.968Z,2.60
2022-09-11T13:48:59.466Z,2.50
2022-09-11T13:51:30.111Z,2.90
2022-09-11T13:54:03.410Z,3.70
2022-09-11T13:56:51.594Z,3.22
2022-09-11T13:59:35.669Z,2.72
2022-09-11T14:04:41.012Z,3.28
2022-09-11T14:07:22.327Z,3.47
2022-09-11T14:10:06.307Z,3.33
2022-09-11T14:12:35.410Z,3.38
2022-09-11T14:15:18.682Z,2.90
2022-09-11T14:17:46.047Z,3.17
2022-09-11T14:20:20.505Z,3.20
2022-09-11T14:22:48.437Z,3.42
2022-09-11T14:25:23.791Z,3.40
2022-09-11T14:27:51.484Z,4.25
2022-09-11T14:30:28.433Z,3.95
2022-09-11T14:33:18.291Z,3.90
2022-09-11T14:35:47.397Z,3.80
2022-09-11T14:38:17.714Z,4.00
2022-09-11T14:40:51.890Z,3.88
2022-09-11T14:43:25.171Z,4.55
2022-09-11T14:45:54.915Z,3.92
2022-09-11T14:48:22.216Z,5.05
2022-09-11T14:50:50.411Z,4.50
2022-09-11T14:53:28.020Z,4.18
2022-09-11T14:55:57.588Z,3.90
2022-09-11T14:58:27.158Z,4.10
2022-09-11T15:00:55.171Z,3.55
2022-09-11T15:03:25.643Z,4.32
2022-09-11T15:05:57.693Z,4.28
2022-09-11T15:08:26.305Z,3.90
2022-09-11T15:10:53.905Z,3.83
2022-09-11T15:13:22.249Z,4.43
2022-09-11T15:15:49.626Z,4.22
2022-09-11T15:18:18.359Z,4.15
2022-09-11T15:20:45.962Z,4.30
2022-09-11T15:23:13.285Z,4.88
2022-09-11T15:25:41.211Z,3.97
2022-09-11T15:28:10.452Z,4.50
2022-09-11T15:30:39.036Z,4.78
2022-09-11T15:33:06.370Z,4.32
2022-09-11T15:35:33.665Z,4.13
2022-09-11T15:38:00.891Z,3.75
2022-09-11T15:40:28.140Z,4.28
2022-09-11T15:42:57.251Z,3.83
2022-09-11T15:45:24.550Z,3.97
2022-09-11T15:47:51.861Z,4.20
2022-09-11T15:50:24.800Z,3.88
2022-09-11T15:52:52.065Z,4.37
2022-09-11T15:55:19.277Z,4.45
2022-09-11T15:57:46.557Z,4.20
2022-09-11T16:00:15.605Z,4.20
2022-09-11T16:02:42.864Z,4.05
2022-09-11T16:05:10.582Z,3.85
2022-09-11T16:07:37.870Z,3.53
2022-09-11T16:10:05.478Z,4.05
2022-09-11T16:12:34.098Z,4.00
2022-09-11T16:15:01.519Z,3.63
2022-09-11T16:17:32.583Z,3.75
2022-09-11T16:20:00.183Z,4.25
2022-09-11T16:22:31.591Z,3.45
2022-09-11T16:24:59.661Z,3.50
2022-09-11T16:27:26.928Z,3.78
2022-09-11T16:30:32.627Z,3.65
2022-09-11T16:32:41.633Z,3.50
2022-09-11T16:35:09.199Z,3.78
2022-09-11T16:37:37.410Z,3.78
2022-09-11T16:40:05.540Z,3.50
2022-09-11T16:42:33.076Z,3.55
2022-09-11T16:45:00.374Z,3.53
2022-09-11T16:47:30.578Z,3.75
2022-09-11T16:50:13.081Z,4.30
2022-09-11T16:52:40.389Z,4.07
2022-09-11T16:55:10.039Z,4.72
2022-09-11T16:57:37.524Z,4.50
2022-09-11T17:00:06.118Z,4.70
2022-09-11T17:02:33.709Z,4.90
2022-09-11T17:05:01.029Z,5.10
2022-09-11T17:07:28.449Z,4.95
2022-09-11T17:09:55.806Z,5.10
2022-09-11T17:12:23.241Z,5.50
2022-09-11T17:14:50.584Z,4.82
2022-09-11T17:17:18.055Z,4.32
2022-09-11T17:19:45.459Z,3.63
2022-09-11T17:22:12.731Z,3.63
2022-09-11T17:24:40.150Z,3.80
2022-09-11T17:27:07.933Z,3.88
2022-09-11T17:29:35.375Z,4.22
2022-09-11T17:32:26.038Z,4.35
2022-09-11T17:34:51.594Z,4.93
2022-09-11T17:37:18.985Z,4.55
2022-09-11T17:39:46.389Z,3.78
2022-09-11T17:42:13.783Z,3.33
2022-09-11T17:44:44.056Z,3.33
2022-09-11T17:47:11.510Z,4.10
2022-09-11T17:49:40.220Z,4.47
2022-09-11T17:52:07.714Z,4.25
2022-09-11T17:54:35.144Z,4.43
2022-09-11T17:57:02.650Z,3.45
2022-09-11T17:59:30.106Z,3.95
2022-09-11T18:02:00.077Z,4.20
2022-09-11T18:04:27.416Z,4.47
2022-09-11T18:06:55.496Z,4.32
2022-09-11T18:09:22.924Z,3.65
2022-09-11T18:11:54.187Z,4.53
2022-09-11T18:14:22.301Z,4.07
2022-09-11T18:16:49.726Z,4.55
2022-09-11T18:19:22.079Z,4.28
2022-09-11T18:21:50.764Z,4.38
2022-09-11T18:24:20.889Z,5.40
2022-09-11T18:26:51.210Z,6.13
2022-09-11T18:29:20.255Z,9.85
2022-09-11T18:31:52.256Z,10.18
2022-09-11T18:34:22.311Z,8.32
2022-09-11T18:36:50.190Z,7.68
2022-09-11T18:39:18.936Z,7.03
2022-09-11T18:41:48.025Z,5.63
2022-09-11T18:44:19.818Z,4.78
2022-09-11T18:46:48.198Z,4.90
2022-09-11T18:49:16.667Z,4.30
2022-09-11T18:51:44.501Z,4.00
2022-09-11T18:54:16.437Z,3.83
2022-09-11T18:56:44.622Z,4.05
2022-09-11T18:59:13.190Z,3.72
2022-09-11T19:01:41.527Z,4.28
2022-09-11T19:04:14.491Z,3.33
2022-09-11T19:06:41.953Z,3.60
2022-09-11T19:09:10.720Z,4.03
2022-09-11T19:11:38.822Z,3.80
2022-09-11T19:14:11.385Z,3.58
2022-09-11T19:16:39.721Z,3.88
2022-09-11T19:19:08.389Z,3.80
2022-09-11T19:21:38.106Z,4.10
2022-09-11T19:24:06.890Z,4.07
2022-09-11T19:26:39.530Z,4.20
2022-09-11T19:29:08.951Z,3.90
2022-09-11T19:31:37.203Z,3.83
2022-09-11T19:34:04.623Z,3.80
2022-09-11T19:36:34.466Z,3.88
2022-09-11T19:39:02.262Z,4.53
2022-09-11T19:41:34.962Z,4.28
2022-09-11T19:44:03.966Z,4.50
2022-09-11T19:46:33.301Z,4.82
2022-09-11T19:49:08.721Z,4.03
2022-09-11T19:51:38.578Z,4.43
2022-09-11T19:54:06.254Z,4.15
2022-09-11T19:56:36.211Z,4.50
2022-09-11T19:59:04.661Z,4.22
2022-09-11T20:01:33.029Z,4.28
2022-09-11T20:04:01.001Z,4.22
2022-09-11T20:06:34.225Z,3.85
2022-09-11T20:09:29.320Z,4.53
2022-09-11T20:11:50.042Z,3.88
2022-09-11T20:14:17.502Z,3.80
2022-09-11T20:16:44.866Z,4.05
2022-09-11T20:19:12.473Z,4.43
2022-09-11T20:21:41.486Z,3.50
2022-09-11T20:24:09.444Z,4.80
2022-09-11T20:26:36.758Z,4.45
2022-09-11T20:29:07.438Z,3.78
2022-09-11T20:31:47.990Z,4.45
2022-09-11T20:34:19.851Z,4.65
2022-09-11T20:36:47.906Z,4.70
2022-09-11T20:39:16.462Z,3.97
2022-09-11T20:41:44.388Z,5.28
2022-09-11T20:44:12.331Z,5.30
2022-09-11T20:46:40.832Z,4.80
2022-09-11T20:49:08.447Z,4.63
2022-09-11T20:51:35.886Z,4.22
2022-09-11T20:54:03.467Z,4.05
2022-09-11T20:56:30.966Z,3.63
2022-09-11T20:59:00.024Z,4.03
2022-09-11T21:01:32.728Z,4.18
2022-09-11T21:04:02.024Z,3.38
2022-09-11T21:06:31.462Z,4.93
2022-09-11T21:09:02.057Z,3.95
2022-09-11T21:11:31.127Z,3.92
2022-09-11T21:13:59.146Z,3.53
2022-09-11T21:16:26.620Z,3.70
2022-09-11T21:18:56.344Z,3.75
2022-09-11T21:21:24.969Z,3.17
2022-09-11T21:24:02.893Z,3.33
2022-09-11T21:26:31.641Z,3.95
2022-09-11T21:29:01.681Z,3.28
2022-09-11T21:31:29.532Z,3.80
2022-09-11T21:33:57.703Z,3.45
2022-09-11T21:36:25.273Z,3.53
2022-09-11T21:38:52.721Z,3.35
2022-09-11T21:41:20.181Z,3.45
2022-09-11T21:43:47.781Z,3.20
2022-09-11T21:46:15.388Z,3.20
2022-09-11T21:48:42.803Z,3.25
2022-09-11T21:51:15.667Z,4.40
2022-09-11T21:53:45.167Z,3.50
2022-09-11T21:56:29.509Z,3.13
2022-09-11T21:58:57.227Z,2.90
2022-09-11T22:01:25.632Z,3.90
2022-09-11T22:03:53.621Z,2.95
2022-09-11T22:06:24.028Z,3.97
2022-09-11T22:08:51.490Z,3.35
2022-09-11T22:11:18.842Z,3.67
2022-09-11T22:13:47.921Z,2.92
2022-09-11T22:16:18.219Z,4.15
2022-09-11T22:18:49.430Z,4.28
2022-09-11T22:21:17.086Z,3.33
2022-09-11T22:23:44.960Z,3.47
2022-09-11T22:26:15.798Z,3.20
2022-09-11T22:28:44.025Z,3.08
2022-09-11T22:31:14.887Z,3.83
2022-09-11T22:33:43.228Z,3.30
2022-09-11T22:36:20.001Z,3.35
2022-09-11T22:38:48.934Z,3.17
2022-09-11T22:41:17.418Z,2.90
2022-09-11T22:43:45.651Z,2.60
2022-09-11T22:46:13.105Z,2.60
2022-09-11T22:48:40.543Z,2.70
2022-09-11T22:51:08.639Z,2.42
2022-09-11T22:53:36.128Z,2.72
2022-09-11T22:56:03.543Z,2.35
2022-09-11T22:58:31.004Z,2.50
2022-09-11T23:01:00.827Z,2.45
2022-09-11T23:03:28.183Z,2.88
2022-09-11T23:06:16.008Z,2.28
2022-09-11T23:08:45.907Z,2.40
2022-09-11T23:11:19.020Z,2.65
2022-09-11T23:13:50.412Z,2.70
2022-09-11T23:16:20.931Z,2.30
2022-09-11T23:18:49.148Z,2.28
2022-09-11T23:21:16.387Z,2.50
2022-09-11T23:23:45.104Z,2.67
2022-09-11T23:26:14.310Z,2.15
2022-09-11T23:28:42.272Z,2.60
2022-09-11T23:31:25.305Z,2.33
2022-09-11T23:33:54.765Z,2.42
2022-09-11T23:36:22.583Z,2.17
2022-09-11T23:38:50.803Z,2.17
2022-09-11T23:41:18.724Z,2.67
2022-09-11T23:43:46.261Z,2.30
2022-09-11T23:46:14.628Z,2.58
2022-09-11T23:48:42.393Z,2.63
2022-09-11T23:51:10.697Z,2.60
2022-09-11T23:53:39.467Z,2.42
2022-09-11T23:56:07.947Z,2.63
2022-09-11T23:58:39.722Z,2.42
